createdAt,value
2019-01-11T00:00:41.483Z,101919.52
2019-01-11T00:03:09.949Z,101920.34
2019-01-11T00:05:38.483Z,101912.61
2019-01-11T00:08:07.290Z,101915.23
2019-01-11T00:10:35.765Z,101913.77
2019-01-11T00:13:04.305Z,101913.14
2019-01-11T00:15:33.235Z,101910.34
2019-01-11T00:18:01.702Z,101914.36
2019-01-11T00:20:30.227Z,101910.14
2019-01-11T00:22:58.677Z,101908.69
2019-01-11T00:25:27.130Z,101909.43
2019-01-11T00:27:55.570Z,101904.57
2019-01-11T00:30:24.027Z,101902.45
2019-01-11T00:32:52.489Z,101896.67
2019-01-11T00:35:20.965Z,101896.17
2019-01-11T00:37:49.393Z,101893.08
2019-01-11T00:40:18.067Z,101893.08
2019-01-11T00:42:46.529Z,101895.22
2019-01-11T00:45:15.318Z,101893.29
2019-01-11T00:47:43.859Z,101895.93
2019-01-11T00:50:12.537Z,101894.00
2019-01-11T00:52:41.001Z,101889.23
2019-01-11T00:55:09.977Z,101889.67
2019-01-11T00:57:38.431Z,101883.92
2019-01-11T01:00:16.087Z,101880.87
2019-01-11T01:02:44.529Z,101884.33
2019-01-11T01:05:13.192Z,101882.23
2019-01-11T01:07:41.664Z,101879.84
2019-01-11T01:10:10.349Z,101874.23
2019-01-11T01:12:38.827Z,101878.10
2019-01-11T01:15:10.529Z,101869.84
2019-01-11T01:17:38.973Z,101868.70
2019-01-11T01:20:15.034Z,101870.95
2019-01-11T01:22:43.655Z,101874.87
2019-01-11T01:25:12.538Z,101864.48
2019-01-11T01:27:41.265Z,101868.34
2019-01-11T01:30:15.859Z,101866.24
2019-01-11T01:32:44.301Z,101859.71
2019-01-11T01:35:12.929Z,101857.54
2019-01-11T01:37:41.369Z,101859.38
2019-01-11T01:40:15.315Z,101862.00
2019-01-11T01:42:43.754Z,101858.38
2019-01-11T01:45:18.062Z,101857.81
2019-01-11T01:47:46.493Z,101857.67
2019-01-11T01:50:15.425Z,101856.08
2019-01-11T01:52:43.921Z,101849.53
2019-01-11T01:55:14.389Z,101857.62
2019-01-11T01:57:42.982Z,101848.32
2019-01-11T02:00:19.285Z,101846.73
2019-01-11T02:02:48.881Z,101844.89
2019-01-11T02:05:17.671Z,101846.78
2019-01-11T02:07:46.312Z,101840.45
2019-01-11T02:10:15.336Z,101840.64
2019-01-11T02:12:43.787Z,101837.58
2019-01-11T02:15:13.064Z,101830.98
2019-01-11T02:17:41.680Z,101830.72
2019-01-11T02:20:15.350Z,101830.73
2019-01-11T02:22:44.158Z,101832.02
2019-01-11T02:25:13.236Z,101827.36
2019-01-11T02:27:41.861Z,101818.55
2019-01-11T02:30:16.025Z,101822.16
2019-01-11T02:32:52.112Z,101821.98
2019-01-11T02:35:14.649Z,101814.05
2019-01-11T02:37:43.116Z,101807.66
2019-01-11T02:40:13.142Z,101804.09
2019-01-11T02:42:41.575Z,101802.70
2019-01-11T02:45:18.850Z,101805.02
2019-01-11T02:47:47.368Z,101803.20
2019-01-11T02:50:16.410Z,101797.20
2019-01-11T02:52:45.286Z,101802.56
2019-01-11T02:55:13.832Z,101796.97
2019-01-11T02:57:42.258Z,101789.26
2019-01-11T03:00:16.442Z,101786.47
2019-01-11T03:02:44.956Z,101772.90
2019-01-11T03:05:14.471Z,101772.34
2019-01-11T03:07:43.088Z,101766.38
2019-01-11T03:10:14.833Z,101761.11
2019-01-11T03:12:43.297Z,101757.77
2019-01-11T03:15:12.526Z,101751.36
2019-01-11T03:17:40.964Z,101749.52
2019-01-11T03:20:12.049Z,101735.20
2019-01-11T03:22:40.492Z,101728.02
2019-01-11T03:25:11.170Z,101733.19
2019-01-11T03:27:39.629Z,101722.81
2019-01-11T03:30:11.613Z,101720.80
2019-01-11T03:32:40.066Z,101713.11
2019-01-11T03:35:10.226Z,101716.06
2019-01-11T03:37:38.693Z,101709.13
2019-01-11T03:40:10.330Z,101698.69
2019-01-11T03:42:38.797Z,101699.58
2019-01-11T03:45:10.326Z,101698.05
2019-01-11T03:47:38.794Z,101692.64
2019-01-11T03:50:10.065Z,101689.17
2019-01-11T03:52:38.524Z,101695.82
2019-01-11T03:55:09.813Z,101690.95
2019-01-11T03:57:38.378Z,101687.90
2019-01-11T04:00:10.216Z,101684.55
2019-01-11T04:02:38.681Z,101677.41
2019-01-11T04:05:08.965Z,101675.98
2019-01-11T04:07:37.497Z,101671.51
2019-01-11T04:10:08.987Z,101676.12
2019-01-11T04:12:37.452Z,101673.42
2019-01-11T04:15:08.844Z,101673.93
2019-01-11T04:17:37.333Z,101665.22
2019-01-11T04:20:08.831Z,101664.42
2019-01-11T04:22:37.875Z,101661.47
2019-01-11T04:25:07.253Z,101660.23
2019-01-11T04:27:35.736Z,101651.52
2019-01-11T04:30:06.973Z,101649.73
2019-01-11T04:32:35.429Z,101640.78
2019-01-11T04:35:04.181Z,101633.23
2019-01-11T04:37:32.601Z,101635.16
2019-01-11T04:40:01.070Z,101631.58
2019-01-11T04:42:29.509Z,101625.92
2019-01-11T04:44:57.972Z,101620.55
2019-01-11T04:47:26.429Z,101619.77
2019-01-11T04:49:54.889Z,101614.90
2019-01-11T04:52:23.349Z,101616.18
2019-01-11T04:54:51.816Z,101607.61
2019-01-11T04:57:20.262Z,101609.56
2019-01-11T04:59:48.728Z,101601.34
2019-01-11T05:02:17.189Z,101603.91
2019-01-11T05:04:45.645Z,101598.02
2019-01-11T05:07:14.163Z,101592.89
2019-01-11T05:09:42.614Z,101589.30
2019-01-11T05:12:11.055Z,101590.48
2019-01-11T05:14:39.523Z,101588.55
2019-01-11T05:17:07.974Z,101576.13
2019-01-11T05:19:36.436Z,101576.53
2019-01-11T05:22:05.092Z,101578.06
2019-01-11T05:24:33.533Z,101568.58
2019-01-11T05:27:01.992Z,101568.47
2019-01-11T05:29:30.481Z,101559.89
2019-01-11T05:31:59.103Z,101561.16
2019-01-11T05:34:27.556Z,101553.23
2019-01-11T05:36:56.016Z,101561.41
2019-01-11T05:39:24.460Z,101552.45
2019-01-11T05:41:52.918Z,101550.42
2019-01-11T05:44:21.367Z,101554.23
2019-01-11T05:46:49.831Z,101549.63
2019-01-11T05:49:18.286Z,101541.58
2019-01-11T05:51:46.771Z,101537.86
2019-01-11T05:54:15.213Z,101536.97
2019-01-11T05:56:43.685Z,101529.27
2019-01-11T05:59:12.124Z,101511.62
2019-01-11T06:01:40.608Z,101516.62
2019-01-11T06:04:10.727Z,101516.48
2019-01-11T06:06:40.815Z,101516.75
2019-01-11T06:09:09.286Z,101511.22
2019-01-11T06:11:37.760Z,101513.03
2019-01-11T06:14:06.208Z,101505.23
2019-01-11T06:16:34.700Z,101502.02
2019-01-11T06:19:03.128Z,101503.67
2019-01-11T06:21:31.584Z,101500.73
2019-01-11T06:24:00.051Z,101498.19
2019-01-11T06:26:28.510Z,101491.50
2019-01-11T06:28:56.963Z,101492.02
2019-01-11T06:31:25.403Z,101487.69
2019-01-11T06:33:53.870Z,101483.45
2019-01-11T06:36:22.347Z,101478.72
2019-01-11T06:38:50.874Z,101482.56
2019-01-11T06:41:19.328Z,101482.42
2019-01-11T06:43:49.426Z,101476.91
2019-01-11T06:46:17.943Z,101472.58
2019-01-11T06:48:46.404Z,101468.99
2019-01-11T06:51:14.844Z,101465.16
2019-01-11T06:53:43.316Z,101462.08
2019-01-11T06:56:11.755Z,101457.47
2019-01-11T06:58:40.228Z,101459.80
2019-01-11T07:01:08.675Z,101458.23
2019-01-11T07:03:37.156Z,101452.62
2019-01-11T07:06:05.615Z,101454.41
2019-01-11T07:08:34.105Z,101452.09
2019-01-11T07:11:02.592Z,101452.84
2019-01-11T07:13:31.060Z,101456.70
2019-01-11T07:15:59.515Z,101454.66
2019-01-11T07:18:27.965Z,101454.91
2019-01-11T07:20:56.434Z,101448.02
2019-01-11T07:23:24.920Z,101451.88
2019-01-11T07:25:53.395Z,101456.70
2019-01-11T07:28:23.375Z,101446.70
2019-01-11T07:30:53.478Z,101451.45
2019-01-11T07:33:23.307Z,101450.98
2019-01-11T07:35:52.838Z,101451.56
2019-01-11T07:38:21.276Z,101452.59
2019-01-11T07:40:49.737Z,101449.16
2019-01-11T07:43:18.175Z,101445.97
2019-01-11T07:45:46.634Z,101453.91
2019-01-11T07:48:15.079Z,101441.05
2019-01-11T07:50:49.184Z,101437.75
2019-01-11T07:53:13.750Z,101436.59
2019-01-11T07:55:42.209Z,101437.46
2019-01-11T07:58:10.660Z,101444.14
2019-01-11T08:00:39.123Z,101440.54
2019-01-11T08:03:07.573Z,101446.55
2019-01-11T08:05:36.041Z,101441.30
2019-01-11T08:08:04.989Z,101442.59
2019-01-11T08:10:33.451Z,101427.77
2019-01-11T08:13:01.909Z,101427.50
2019-01-11T08:15:30.357Z,101426.34
2019-01-11T08:17:58.845Z,101427.22
2019-01-11T08:20:27.285Z,101422.84
2019-01-11T08:22:55.753Z,101416.23
2019-01-11T08:25:24.189Z,101410.95
2019-01-11T08:27:52.715Z,101406.77
2019-01-11T08:30:21.164Z,101403.14
2019-01-11T08:32:49.647Z,101396.72
2019-01-11T08:35:18.088Z,101392.07
2019-01-11T08:37:47.064Z,101395.94
2019-01-11T08:40:15.476Z,101397.17
2019-01-11T08:42:44.136Z,101395.52
2019-01-11T08:45:13.941Z,101389.25
2019-01-11T08:47:42.498Z,101386.95
2019-01-11T08:50:17.069Z,101388.49
2019-01-11T08:52:45.693Z,101382.36
2019-01-11T08:55:14.318Z,101373.48
2019-01-11T08:57:42.929Z,101375.95
2019-01-11T09:00:15.481Z,101367.51
2019-01-11T09:02:43.953Z,101362.84
2019-01-11T09:05:12.456Z,101361.83
2019-01-11T09:07:40.936Z,101358.74
2019-01-11T09:10:12.461Z,101363.14
2019-01-11T09:12:40.911Z,101359.53
2019-01-11T09:15:09.812Z,101359.20
2019-01-11T09:17:40.006Z,101365.94
2019-01-11T09:20:08.738Z,101363.63
2019-01-11T09:22:37.177Z,101361.17
2019-01-11T09:25:06.210Z,101362.09
2019-01-11T09:27:34.658Z,101364.72
2019-01-11T09:30:03.430Z,101358.22
2019-01-11T09:32:31.886Z,101348.66
2019-01-11T09:35:00.383Z,101346.45
2019-01-11T09:37:28.818Z,101338.70
2019-01-11T09:39:57.342Z,101339.72
2019-01-11T09:42:25.740Z,101336.67
2019-01-11T09:44:55.093Z,101324.03
2019-01-11T09:47:23.547Z,101325.10
2019-01-11T09:49:52.195Z,101330.72
2019-01-11T09:52:20.648Z,101324.84
2019-01-11T09:54:49.114Z,101320.99
2019-01-11T09:57:17.584Z,101321.18
2019-01-11T09:59:46.056Z,101323.69
2019-01-11T10:02:16.178Z,101320.43
2019-01-11T10:04:44.720Z,101321.31
2019-01-11T10:07:17.526Z,101303.51
2019-01-11T10:09:45.982Z,101305.36
2019-01-11T10:12:14.434Z,101308.45
2019-01-11T10:14:42.927Z,101311.27
2019-01-11T10:17:11.395Z,101306.41
2019-01-11T10:19:39.834Z,101288.92
2019-01-11T10:22:08.326Z,101291.35
2019-01-11T10:24:36.785Z,101275.84
2019-01-11T10:27:05.234Z,101274.29
2019-01-11T10:29:33.694Z,101273.45
2019-01-11T10:32:02.179Z,101270.09
2019-01-11T10:34:30.635Z,101258.08
2019-01-11T10:36:59.116Z,101254.28
2019-01-11T10:39:27.557Z,101250.16
2019-01-11T10:41:56.107Z,101248.97
2019-01-11T10:44:24.585Z,101247.13
2019-01-11T10:46:53.048Z,101237.83
2019-01-11T10:49:21.641Z,101226.86
2019-01-11T10:51:50.106Z,101224.09
2019-01-11T10:54:25.995Z,101217.32
2019-01-11T10:56:54.477Z,101213.98
2019-01-11T10:59:22.907Z,101209.87
2019-01-11T11:01:51.375Z,101217.11
2019-01-11T11:04:19.835Z,101217.78
2019-01-11T11:06:48.291Z,101210.83
2019-01-11T11:09:16.748Z,101209.61
2019-01-11T11:11:45.341Z,101200.96
2019-01-11T11:14:13.863Z,101202.19
2019-01-11T11:16:42.356Z,101193.27
2019-01-11T11:19:10.794Z,101189.49
2019-01-11T11:21:39.267Z,101187.47
2019-01-11T11:24:07.699Z,101179.50
2019-01-11T11:26:36.194Z,101178.16
2019-01-11T11:29:04.874Z,101171.88
2019-01-11T11:31:33.356Z,101163.10
2019-01-11T11:34:01.809Z,101165.27
2019-01-11T11:36:30.259Z,101158.58
2019-01-11T11:38:58.721Z,101159.19
2019-01-11T11:41:27.242Z,101146.09
2019-01-11T11:43:55.744Z,101138.30
2019-01-11T11:46:24.167Z,101138.51
2019-01-11T11:48:52.656Z,101137.30
2019-01-11T11:51:21.115Z,101132.47
2019-01-11T11:53:49.579Z,101129.25
2019-01-11T11:56:18.026Z,101116.80
2019-01-11T11:58:46.517Z,101105.17
2019-01-11T12:01:14.973Z,101099.88
2019-01-11T12:03:43.461Z,101095.98
2019-01-11T12:06:11.967Z,101092.02
2019-01-11T12:08:40.391Z,101087.41
2019-01-11T12:11:08.845Z,101079.23
2019-01-11T12:13:37.316Z,101070.65
2019-01-11T12:16:05.756Z,101066.88
2019-01-11T12:18:34.235Z,101061.50
2019-01-11T12:21:02.776Z,101057.25
2019-01-11T12:23:31.275Z,101054.97
2019-01-11T12:25:59.992Z,101050.63
2019-01-11T12:28:28.473Z,101046.38
2019-01-11T12:30:56.932Z,101042.97
2019-01-11T12:33:25.357Z,101035.21
2019-01-11T12:35:53.831Z,101027.61
2019-01-11T12:38:22.273Z,101033.84
2019-01-11T12:40:50.734Z,101028.39
2019-01-11T12:43:19.176Z,101024.52
2019-01-11T12:45:47.639Z,101020.52
2019-01-11T12:48:16.110Z,101020.12
2019-01-11T12:50:44.648Z,101011.04
2019-01-11T12:53:13.017Z,101013.49
2019-01-11T12:55:41.481Z,101013.23
2019-01-11T12:58:09.928Z,100999.70
2019-01-11T13:00:38.383Z,101003.64
2019-01-11T13:03:06.882Z,101000.87
2019-01-11T13:05:35.350Z,100999.81
2019-01-11T13:08:03.801Z,100994.88
2019-01-11T13:10:32.283Z,100987.45
2019-01-11T13:13:00.738Z,100989.76
2019-01-11T13:15:29.190Z,100985.52
2019-01-11T13:17:57.672Z,100976.92
2019-01-11T13:20:26.120Z,100973.36
2019-01-11T13:22:54.648Z,100975.34
2019-01-11T13:25:23.131Z,100967.94
2019-01-11T13:27:51.612Z,100969.23
2019-01-11T13:30:20.610Z,100966.23
2019-01-11T13:32:49.241Z,100970.11
2019-01-11T13:35:17.705Z,100968.70
2019-01-11T13:37:46.176Z,100970.40
2019-01-11T13:40:17.503Z,100968.13
2019-01-11T13:42:45.981Z,100957.34
2019-01-11T13:45:15.066Z,100952.61
2019-01-11T13:47:43.643Z,100954.37
2019-01-11T13:50:15.158Z,100956.46
2019-01-11T13:52:43.606Z,100952.79
2019-01-11T13:55:12.066Z,100950.11
2019-01-11T13:57:40.569Z,100947.94
2019-01-11T14:00:14.758Z,100944.60
2019-01-11T14:02:43.228Z,100937.55
2019-01-11T14:05:11.671Z,100929.95
2019-01-11T14:07:40.128Z,100933.61
2019-01-11T14:10:08.587Z,100923.22
2019-01-11T14:12:37.057Z,100930.92
2019-01-11T14:15:08.147Z,100932.80
2019-01-11T14:17:37.433Z,100932.73
2019-01-11T14:20:08.845Z,100936.77
2019-01-11T14:22:37.289Z,100936.75
2019-01-11T14:25:08.283Z,100937.83
2019-01-11T14:27:36.745Z,100935.37
2019-01-11T14:30:14.134Z,100927.36
2019-01-11T14:32:42.707Z,100934.55
2019-01-11T14:35:11.306Z,100934.19
2019-01-11T14:37:39.774Z,100935.77
2019-01-11T14:40:13.907Z,100934.36
2019-01-11T14:42:42.366Z,100927.14
2019-01-11T14:45:13.568Z,100924.90
2019-01-11T14:47:42.026Z,100924.20
2019-01-11T14:50:15.526Z,100925.78
2019-01-11T14:52:43.992Z,100923.96
2019-01-11T14:55:12.459Z,100917.83
2019-01-11T14:57:40.921Z,100927.34
2019-01-11T15:00:18.141Z,100919.33
2019-01-11T15:02:46.665Z,100916.42
2019-01-11T15:05:16.740Z,100910.50
2019-01-11T15:07:45.329Z,100915.64
2019-01-11T15:10:15.668Z,100905.53
2019-01-11T15:12:45.491Z,100905.53
2019-01-11T15:15:13.965Z,100904.41
2019-01-11T15:17:42.438Z,100898.89
2019-01-11T15:20:15.858Z,100896.09
2019-01-11T15:22:44.853Z,100898.08
2019-01-11T15:25:13.464Z,100895.69
2019-01-11T15:27:41.941Z,100892.83
2019-01-11T15:30:15.854Z,100885.59
2019-01-11T15:32:44.310Z,100886.58
2019-01-11T15:35:13.031Z,100881.61
2019-01-11T15:37:41.502Z,100891.09
2019-01-11T15:40:15.563Z,100870.61
2019-01-11T15:42:44.025Z,100871.77
2019-01-11T15:45:12.509Z,100873.56
2019-01-11T15:47:41.007Z,100869.70
2019-01-11T15:50:18.344Z,100867.91
2019-01-11T15:52:46.825Z,100852.16
2019-01-11T15:55:15.306Z,100853.98
2019-01-11T15:57:43.781Z,100850.98
2019-01-11T16:00:15.340Z,100855.81
2019-01-11T16:02:43.873Z,100859.48
2019-01-11T16:05:12.358Z,100845.73
2019-01-11T16:07:40.826Z,100844.27
2019-01-11T16:10:15.214Z,100845.86
2019-01-11T16:12:43.666Z,100852.12
2019-01-11T16:15:24.355Z,100852.57
2019-01-11T16:17:55.856Z,100839.80
2019-01-11T16:20:24.323Z,100841.56
2019-01-11T16:22:52.832Z,100838.81
2019-01-11T16:25:21.298Z,100834.92
2019-01-11T16:27:49.866Z,100838.61
2019-01-11T16:30:18.545Z,100828.24
2019-01-11T16:32:47.023Z,100830.28
2019-01-11T16:35:15.489Z,100840.64
2019-01-11T16:37:43.975Z,100830.81
2019-01-11T16:40:13.809Z,100826.44
2019-01-11T16:42:42.292Z,100828.70
2019-01-11T16:45:15.120Z,100839.75
2019-01-11T16:47:43.650Z,100841.23
2019-01-11T16:50:15.254Z,100837.84
2019-01-11T16:52:46.526Z,100836.45
2019-01-11T16:55:13.992Z,100832.34
2019-01-11T16:57:42.434Z,100836.10
2019-01-11T17:00:13.969Z,100832.28
2019-01-11T17:02:42.450Z,100835.74
2019-01-11T17:05:11.378Z,100837.24
2019-01-11T17:07:39.898Z,100837.09
2019-01-11T17:10:11.121Z,100832.76
2019-01-11T17:12:41.898Z,100833.73
2019-01-11T17:15:12.987Z,100836.78
2019-01-11T17:17:41.438Z,100838.84
2019-01-11T17:20:12.923Z,100838.91
2019-01-11T17:22:41.373Z,100836.73
2019-01-11T17:25:09.853Z,100840.86
2019-01-11T17:27:38.322Z,100844.25
2019-01-11T17:30:12.585Z,100843.53
2019-01-11T17:32:41.122Z,100835.23
2019-01-11T17:35:09.638Z,100833.63
2019-01-11T17:37:38.094Z,100838.33
2019-01-11T17:40:09.245Z,100839.26
2019-01-11T17:42:37.714Z,100840.39
2019-01-11T17:45:08.918Z,100841.31
2019-01-11T17:47:37.383Z,100842.00
2019-01-11T17:50:09.149Z,100836.78
2019-01-11T17:52:37.597Z,100836.88
2019-01-11T17:55:06.939Z,100835.59
2019-01-11T17:57:35.386Z,100839.77
2019-01-11T18:00:06.968Z,100848.07
2019-01-11T18:02:35.418Z,100842.70
2019-01-11T18:05:05.174Z,100850.23
2019-01-11T18:07:33.649Z,100851.22
2019-01-11T18:10:02.130Z,100851.57
2019-01-11T18:12:30.729Z,100851.83
2019-01-11T18:14:59.180Z,100855.84
2019-01-11T18:17:27.683Z,100843.46
2019-01-11T18:19:56.118Z,100849.75
2019-01-11T18:22:24.621Z,100851.58
2019-01-11T18:24:53.081Z,100861.57
2019-01-11T18:27:21.553Z,100858.20
2019-01-11T18:29:49.996Z,100855.47
2019-01-11T18:32:18.524Z,100857.89
2019-01-11T18:34:46.979Z,100854.59
2019-01-11T18:37:15.439Z,100855.47
2019-01-11T18:39:43.905Z,100850.63
2019-01-11T18:42:12.389Z,100851.29
2019-01-11T18:44:40.847Z,100848.68
2019-01-11T18:47:09.326Z,100858.27
2019-01-11T18:49:37.774Z,100858.88
2019-01-11T18:52:06.266Z,100854.81
2019-01-11T18:54:34.704Z,100864.59
2019-01-11T18:57:03.177Z,100863.62
2019-01-11T18:59:32.322Z,100860.47
2019-01-11T19:02:00.860Z,100866.92
2019-01-11T19:04:29.374Z,100862.58
2019-01-11T19:06:57.822Z,100863.28
2019-01-11T19:09:26.263Z,100866.33
2019-01-11T19:11:54.827Z,100876.80
2019-01-11T19:14:23.287Z,100872.64
2019-01-11T19:16:51.759Z,100865.70
2019-01-11T19:19:20.238Z,100873.05
2019-01-11T19:21:51.645Z,100868.11
2019-01-11T19:24:20.238Z,100862.23
2019-01-11T19:26:48.683Z,100866.17
2019-01-11T19:29:17.160Z,100867.96
2019-01-11T19:31:45.614Z,100863.74
2019-01-11T19:34:14.097Z,100876.41
2019-01-11T19:36:42.592Z,100876.16
2019-01-11T19:39:11.057Z,100871.42
2019-01-11T19:41:39.558Z,100872.64
2019-01-11T19:44:08.071Z,100878.27
2019-01-11T19:46:36.540Z,100882.64
2019-01-11T19:49:05.376Z,100877.61
2019-01-11T19:51:33.842Z,100881.83
2019-01-11T19:54:02.319Z,100877.48
2019-01-11T19:56:30.790Z,100877.14
2019-01-11T19:59:00.484Z,100875.59
2019-01-11T20:01:29.025Z,100879.72
2019-01-11T20:03:57.497Z,100878.18
2019-01-11T20:06:27.257Z,100871.98
2019-01-11T20:08:55.921Z,100869.97
2019-01-11T20:11:24.448Z,100869.88
2019-01-11T20:13:52.959Z,100874.47
2019-01-11T20:16:21.458Z,100869.09
2019-01-11T20:18:49.961Z,100867.30
2019-01-11T20:21:18.429Z,100870.03
2019-01-11T20:23:48.464Z,100869.72
2019-01-11T20:26:16.932Z,100873.12
2019-01-11T20:28:45.407Z,100877.92
2019-01-11T20:31:15.022Z,100874.78
2019-01-11T20:33:43.543Z,100867.96
2019-01-11T20:36:12.237Z,100870.31
2019-01-11T20:38:41.065Z,100880.98
2019-01-11T20:41:09.546Z,100879.22
2019-01-11T20:43:38.020Z,100880.19
2019-01-11T20:46:06.508Z,100872.14
2019-01-11T20:48:34.962Z,100881.61
2019-01-11T20:51:03.442Z,100880.60
2019-01-11T20:53:33.613Z,100876.33
2019-01-11T20:56:02.102Z,100883.27
2019-01-11T20:58:30.585Z,100880.19
2019-01-11T21:00:59.495Z,100886.80
2019-01-11T21:03:27.957Z,100894.69
2019-01-11T21:05:56.429Z,100896.57
2019-01-11T21:08:24.904Z,100892.58
2019-01-11T21:10:53.365Z,100895.78
2019-01-11T21:13:21.845Z,100891.64
2019-01-11T21:15:50.416Z,100901.86
2019-01-11T21:18:18.917Z,100901.13
2019-01-11T21:20:47.402Z,100910.16
2019-01-11T21:23:15.877Z,100901.30
2019-01-11T21:25:44.379Z,100896.55
2019-01-11T21:28:12.837Z,100894.56
2019-01-11T21:30:41.292Z,100894.56
2019-01-11T21:33:09.831Z,100903.52
2019-01-11T21:35:38.321Z,100909.46
2019-01-11T21:38:06.809Z,100910.75
2019-01-11T21:40:35.293Z,100911.06
2019-01-11T21:43:03.783Z,100915.75
2019-01-11T21:45:32.249Z,100909.30
2019-01-11T21:48:00.724Z,100907.77
2019-01-11T21:50:29.318Z,100905.28
2019-01-11T21:52:57.864Z,100912.55
2019-01-11T21:55:26.657Z,100910.59
2019-01-11T21:57:55.154Z,100919.30
2019-01-11T22:00:26.499Z,100918.72
2019-01-11T22:02:54.979Z,100925.06
2019-01-11T22:05:23.456Z,100924.27
2019-01-11T22:07:52.017Z,100928.95
2019-01-11T22:10:20.477Z,100935.75
2019-01-11T22:12:48.944Z,100931.79
2019-01-11T22:15:19.085Z,100933.89
2019-01-11T22:17:47.560Z,100932.98
2019-01-11T22:20:17.573Z,100937.25
2019-01-11T22:22:46.141Z,100945.14
2019-01-11T22:25:16.604Z,100944.42
2019-01-11T22:27:45.333Z,100936.78
2019-01-11T22:30:19.786Z,100932.81
2019-01-11T22:32:48.242Z,100931.69
2019-01-11T22:35:18.741Z,100926.84
2019-01-11T22:37:47.390Z,100929.77
2019-01-11T22:40:18.255Z,100938.45
2019-01-11T22:42:47.561Z,100932.34
2019-01-11T22:45:16.098Z,100935.55
2019-01-11T22:47:44.573Z,100933.95
2019-01-11T22:50:15.162Z,100930.65
2019-01-11T22:52:43.625Z,100934.58
2019-01-11T22:55:14.711Z,100940.39
2019-01-11T22:57:43.263Z,100947.93
2019-01-11T23:00:21.956Z,100943.90
2019-01-11T23:02:51.583Z,100938.64
2019-01-11T23:05:20.029Z,100945.50
2019-01-11T23:07:48.496Z,100944.52
2019-01-11T23:10:19.979Z,100946.12
2019-01-11T23:12:51.387Z,100951.47
2019-01-11T23:15:19.992Z,100948.89
2019-01-11T23:17:51.510Z,100950.49
2019-01-11T23:20:19.948Z,100965.95
2019-01-11T23:22:48.429Z,100960.80
2019-01-11T23:25:16.894Z,100963.83
2019-01-11T23:27:45.363Z,100961.70
2019-01-11T23:30:16.462Z,100960.34
2019-01-11T23:32:45.160Z,100965.27
2019-01-11T23:35:13.789Z,100968.63
2019-01-11T23:37:42.252Z,100967.74
2019-01-11T23:40:12.490Z,100974.05
2019-01-11T23:42:40.949Z,100979.37
2019-01-11T23:45:11.536Z,100979.52
2019-01-11T23:47:39.980Z,100987.27
2019-01-11T23:50:11.780Z,100981.48
2019-01-11T23:52:40.223Z,100986.63
2019-01-11T23:55:10.113Z,100987.92
2019-01-11T23:57:38.574Z,100979.72
